Time;durP1;ratioP1;P1;durP2;ratioP2;P2;SDS_P1;SDS_P2;PMS_P1;PMS_P2;Temp;Humidity;BMP_temperature;BMP_pressure;BME280_temperature;BME280_humidity;BME280_pressure;Samples;Min_cycle;Max_cycle;Signal;HPM_P1;HPM_P2
2022/10/08 00:00:49;;;;;;;;;;;;;;;20.08;61.54;100961.52;2305258;76;51635;-78
2022/10/08 00:03:51;;;;;;;;;;;;;;;20.07;61.69;100966.58;2341541;76;51519;-78
2022/10/08 00:06:53;;;;;;;;;;;;;;;20.06;61.81;100960.86;2341703;75;50382;-78
2022/10/08 00:09:54;;;;;;;;;;;;;;;20.03;61.85;100958.03;2305244;76;50046;-78
2022/10/08 00:12:56;;;;;;;;;;;;;;;20.03;61.83;100958.03;2305240;76;49584;-78
2022/10/08 00:15:58;;;;;;;;;;;;;;;20.05;61.61;100956.52;2341648;76;50730;-78
2022/10/08 00:19:01;;;;;;;;;;;;;;;20.03;61.85;100954.00;2341876;76;50211;-78
2022/10/08 00:22:02;;;;;;;;;;;;;;;20.04;61.77;100956.17;2347836;75;52410;-78
2022/10/08 00:25:04;;;;;;;;;;;;;;;20.03;61.84;100952.66;2266307;77;50942;-78
2022/10/08 00:28:06;;;;;;;;;;;;;;;20.03;61.75;100946.46;2310773;76;53716;-78
2022/10/08 00:31:08;;;;;;;;;;;;;;;20.04;61.78;100943.60;2215973;79;50655;-78
2022/10/08 00:34:11;;;;;;;;;;;;;;;20.03;61.74;100946.46;2247451;78;51541;-78
2022/10/08 00:37:14;;;;;;;;;;;;;;;20.03;61.66;100943.77;2215688;78;51362;-78
2022/10/08 00:40:15;;;;;;;;;;;;;;;20.04;61.75;100945.43;2247540;79;51542;-78
2022/10/08 00:43:17;;;;;;;;;;;;;;;20.03;61.60;100954.52;2198799;79;51550;-78
2022/10/08 00:46:24;;;;;;;;;;;;;;;20.02;61.69;100955.03;2208084;80;50258;-78
2022/10/08 00:49:25;;;;;;;;;;;;;;;20.02;61.75;100956.38;2194203;80;50990;-78
2022/10/08 00:52:28;;;;;;;;;;;;;;;20.02;61.59;100956.38;2240486;78;51521;-78
2022/10/08 00:55:29;;;;;;;;;;;;;;;20.00;61.75;100950.34;2252154;78;50275;-78
2022/10/08 00:58:31;;;;;;;;;;;;;;;20.00;61.79;100940.95;2264508;78;50467;-78
2022/10/08 01:01:33;;;;;;;;;;;;;;;19.99;61.74;100940.12;2241366;78;49566;-78
2022/10/08 01:04:34;;;;;;;;;;;;;;;20.00;61.75;100936.41;2264402;78;50292;-78
2022/10/08 01:07:47;;;;;;;;;;;;;;;19.99;61.76;100940.64;2264760;77;50460;-78
2022/10/08 01:10:50;;;;;;;;;;;;;;;19.99;61.79;100929.89;2264649;77;50677;-78
2022/10/08 01:14:03;;;;;;;;;;;;;;;20.00;61.62;100932.89;2240870;78;50325;-78
2022/10/08 01:17:08;;;;;;;;;;;;;;;19.99;61.59;100926.69;2264736;77;50081;-79
2022/10/08 01:20:12;;;;;;;;;;;;;;;19.99;61.67;100928.55;2264938;78;50383;-79
2022/10/08 01:23:30;;;;;;;;;;;;;;;19.99;61.61;100931.23;2261292;77;50769;-77
2022/10/08 01:26:49;;;;;;;;;;;;;;;19.99;61.82;100931.23;2227206;79;51489;-77
2022/10/08 01:29:50;;;;;;;;;;;;;;;19.97;61.70;100930.06;2158871;82;50304;-79
2022/10/08 01:32:53;;;;;;;;;;;;;;;19.99;61.54;100926.69;2158728;82;50781;-79
2022/10/08 01:35:56;;;;;;;;;;;;;;;20.00;61.57;100922.98;2153111;82;51447;-79
2022/10/08 01:38:58;;;;;;;;;;;;;;;19.99;61.64;100915.13;2128660;83;51014;-79
2022/10/08 01:42:00;;;;;;;;;;;;;;;19.98;61.53;100918.81;2140122;82;50811;-78
2022/10/08 01:45:03;;;;;;;;;;;;;;;19.99;61.48;100929.38;2139707;81;51593;-77
2022/10/08 01:48:06;;;;;;;;;;;;;;;19.98;61.58;100917.47;2140050;83;51590;-79
2022/10/08 01:51:12;;;;;;;;;;;;;;;19.99;61.54;100917.81;2096553;83;50283;-79
2022/10/08 01:54:15;;;;;;;;;;;;;;;19.99;61.46;100911.09;2140140;83;51543;-78
2022/10/08 01:57:16;;;;;;;;;;;;;;;19.98;61.52;100908.06;2140243;83;50265;-78
2022/10/08 02:00:19;;;;;;;;;;;;;;;19.98;61.53;100908.89;2140182;83;50190;-80
2022/10/08 02:03:21;;;;;;;;;;;;;;;19.97;61.59;100905.89;2140878;79;50977;-78
2022/10/08 02:06:23;;;;;;;;;;;;;;;19.97;61.57;100900.52;2209902;78;50062;-79
2022/10/08 02:09:25;;;;;;;;;;;;;;;19.97;61.46;100895.15;2257281;78;50675;-79
2022/10/08 02:12:26;;;;;;;;;;;;;;;19.98;61.53;100888.75;2264030;78;50822;-80
2022/10/08 02:15:33;;;;;;;;;;;;;;;19.98;61.55;100889.27;2204482;78;50450;-79
2022/10/08 02:18:36;;;;;;;;;;;;;;;19.97;61.42;100885.75;2263877;78;51799;-79
2022/10/08 02:21:38;;;;;;;;;;;;;;;19.99;61.36;100877.52;2218473;78;52631;-80
2022/10/08 02:24:42;;;;;;;;;;;;;;;19.99;61.43;100873.48;2266329;77;50815;-79
2022/10/08 02:27:49;;;;;;;;;;;;;;;19.96;61.54;100872.49;2260028;77;49658;-79
2022/10/08 02:30:58;;;;;;;;;;;;;;;19.97;61.50;100874.18;2293120;77;51540;-77
2022/10/08 02:34:11;;;;;;;;;;;;;;;19.97;61.43;100884.92;2286634;77;51494;-77
2022/10/08 02:37:14;;;;;;;;;;;;;;;19.97;61.46;100884.92;2288563;77;51601;-78
2022/10/08 02:40:15;;;;;;;;;;;;;;;19.97;61.38;100879.55;2248618;78;52541;-77
2022/10/08 02:43:21;;;;;;;;;;;;;;;19.95;61.47;100878.38;2231112;78;52389;-78
2022/10/08 02:46:24;;;;;;;;;;;;;;;19.95;61.42;100878.90;2264024;78;51492;-79
2022/10/08 02:49:26;;;;;;;;;;;;;;;19.95;61.40;100889.13;2263896;78;50269;-80
2022/10/08 02:52:29;;;;;;;;;;;;;;;19.95;61.37;100878.38;2263902;78;51538;-80
2022/10/08 02:55:49;;;;;;;;;;;;;;;19.94;61.43;100881.27;2263626;78;50453;-79
2022/10/08 02:58:51;;;;;;;;;;;;;;;19.94;61.43;100886.64;2263833;78;51639;-79
2022/10/08 03:01:59;;;;;;;;;;;;;;;19.95;61.50;100895.02;2263866;78;51534;-78
2022/10/08 03:05:02;;;;;;;;;;;;;;;19.94;61.39;100892.02;2206560;78;50141;-79
2022/10/08 03:08:04;;;;;;;;;;;;;;;19.94;61.63;100893.36;2276438;77;51554;-79
2022/10/08 03:11:06;;;;;;;;;;;;;;;19.94;61.47;100889.33;2301239;77;50046;-78
2022/10/08 03:14:08;;;;;;;;;;;;;;;19.95;61.47;100900.38;2300913;77;50778;-79
2022/10/08 03:17:10;;;;;;;;;;;;;;;19.93;61.43;100887.64;2269980;77;49575;-78
2022/10/08 03:20:12;;;;;;;;;;;;;;;19.94;61.37;100892.02;2300608;77;51556;-78
2022/10/08 03:23:14;;;;;;;;;;;;;;;19.95;61.34;100888.30;2300387;77;51595;-81
2022/10/08 03:26:17;;;;;;;;;;;;;;;19.94;61.32;100897.39;2291482;77;50771;-79
2022/10/08 03:29:19;;;;;;;;;;;;;;;19.94;61.37;100890.67;2261532;77;51593;-77
2022/10/08 03:32:20;;;;;;;;;;;;;;;19.94;61.39;100890.16;2287788;77;52524;-78
2022/10/08 03:35:22;;;;;;;;;;;;;;;19.93;61.24;100888.98;2287464;78;51524;-77
2022/10/08 03:38:23;;;;;;;;;;;;;;;19.92;61.29;100898.08;2287848;77;50376;-78
2022/10/08 03:41:25;;;;;;;;;;;;;;;19.92;61.34;100896.73;2242340;77;49543;-79
2022/10/08 03:44:27;;;;;;;;;;;;;;;19.91;61.48;100892.36;2267140;77;50380;-79
2022/10/08 03:47:28;;;;;;;;;;;;;;;19.92;61.38;100897.56;2292365;77;50344;-78
2022/10/08 03:50:30;;;;;;;;;;;;;;;19.93;61.22;100895.70;2267217;77;50069;-78
2022/10/08 03:53:32;;;;;;;;;;;;;;;19.92;61.17;100897.56;2268204;77;50081;-79
2022/10/08 03:56:33;;;;;;;;;;;;;;;19.91;61.24;100891.88;2267446;77;50633;-78
2022/10/08 03:59:35;;;;;;;;;;;;;;;19.92;61.34;100891.36;2292504;77;50068;-79
2022/10/08 04:02:37;;;;;;;;;;;;;;;19.90;61.41;100891.53;2267222;77;49823;-79
2022/10/08 04:05:39;;;;;;;;;;;;;;;19.91;61.28;100885.65;2241347;77;51400;-78
2022/10/08 04:08:40;;;;;;;;;;;;;;;19.91;61.17;100877.11;2252590;78;51496;-78
2022/10/08 04:11:42;;;;;;;;;;;;;;;19.91;61.11;100874.42;2267819;78;50387;-79
2022/10/08 04:14:43;;;;;;;;;;;;;;;19.91;61.21;100881.63;2242671;78;51825;-79
2022/10/08 04:17:45;;;;;;;;;;;;;;;19.90;61.13;100885.34;2243225;78;50484;-79
2022/10/08 04:20:47;;;;;;;;;;;;;;;19.89;61.14;100876.45;2244402;78;50019;-79
2022/10/08 04:23:49;;;;;;;;;;;;;;;19.89;61.24;100871.59;2242765;78;51600;-79
2022/10/08 04:26:50;;;;;;;;;;;;;;;19.89;61.12;100879.66;2280850;77;50053;-78
2022/10/08 04:29:52;;;;;;;;;;;;;;;19.89;61.28;100887.20;2258869;77;50638;-78
2022/10/08 04:32:53;;;;;;;;;;;;;;;19.89;61.19;100881.83;2293351;77;51519;-78
2022/10/08 04:35:55;;;;;;;;;;;;;;;19.88;61.14;100877.45;2280365;77;51470;-78
2022/10/08 04:38:57;;;;;;;;;;;;;;;19.88;61.14;100877.97;2282997;77;51538;-79
2022/10/08 04:41:58;;;;;;;;;;;;;;;19.88;61.14;100882.00;2219003;78;50172;-79
2022/10/08 04:45:00;;;;;;;;;;;;;;;19.87;61.13;100883.86;2243156;78;50722;-78
2022/10/08 04:48:01;;;;;;;;;;;;;;;19.86;61.20;100874.63;2273607;78;51527;-79
2022/10/08 04:51:03;;;;;;;;;;;;;;;19.86;61.18;100884.03;2242966;78;51417;-79
2022/10/08 04:54:05;;;;;;;;;;;;;;;19.87;61.20;100887.06;2218531;78;50121;-79
2022/10/08 04:57:07;;;;;;;;;;;;;;;19.88;61.11;100891.40;2243351;78;51436;-78
2022/10/08 05:00:09;;;;;;;;;;;;;;;19.86;61.20;100890.26;2243485;78;51538;-79
2022/10/08 05:03:10;;;;;;;;;;;;;;;19.86;61.18;100886.72;2243187;77;53990;-80
2022/10/08 05:06:13;;;;;;;;;;;;;;;19.87;61.12;100899.14;2239306;77;50005;-78
2022/10/08 05:09:15;;;;;;;;;;;;;;;19.86;61.12;100888.06;2264648;76;50645;-80
2022/10/08 05:12:16;;;;;;;;;;;;;;;19.87;61.14;100891.09;2255909;77;51506;-78
2022/10/08 05:15:18;;;;;;;;;;;;;;;19.84;61.22;100881.55;2234782;79;50706;-78
2022/10/08 05:18:20;;;;;;;;;;;;;;;19.86;61.18;100889.41;2259770;78;52856;-79
2022/10/08 05:21:22;;;;;;;;;;;;;;;19.86;61.36;100884.03;2235085;79;51528;-79
2022/10/08 05:24:24;;;;;;;;;;;;;;;19.83;61.46;100889.27;2255522;79;50147;-81
2022/10/08 05:27:26;;;;;;;;;;;;;;;19.81;61.80;100894.01;2268772;77;51490;-80
2022/10/08 05:30:27;;;;;;;;;;;;;;;19.84;61.51;100890.12;2284824;77;49557;-79
2022/10/08 05:33:29;;;;;;;;;;;;;;;19.80;61.77;100890.98;2258479;78;50124;-79
2022/10/08 05:36:32;;;;;;;;;;;;;;;19.81;62.07;100891.33;2252389;77;50424;-79
2022/10/08 05:39:34;;;;;;;;;;;;;;;19.79;62.05;100891.50;2305592;77;50456;-80
2022/10/08 05:42:35;;;;;;;;;;;;;;;19.77;61.95;100894.87;2313611;77;50274;-81
2022/10/08 05:45:37;;;;;;;;;;;;;;;19.79;62.12;100896.87;2289002;77;50105;-80
2022/10/08 05:48:39;;;;;;;;;;;;;;;19.80;62.06;100901.20;2313564;77;50630;-78
2022/10/08 05:51:40;;;;;;;;;;;;;;;19.89;60.57;100889.05;2285560;77;50752;-78
2022/10/08 05:54:42;;;;;;;;;;;;;;;19.85;60.66;100893.95;2266732;76;49454;-76
2022/10/08 05:57:43;;;;;;;;;;;;;;;19.80;60.60;100891.81;2309511;76;50764;-76
2022/10/08 06:00:46;;;;;;;;;;;;;;;19.80;60.60;100891.81;2251575;78;51538;-76
2022/10/08 06:04:01;;;;;;;;;;;;;;;19.78;60.48;100891.19;2237163;78;51583;-76
2022/10/08 06:07:03;;;;;;;;;;;;;;;19.75;61.16;100892.88;2255873;76;49734;-76
2022/10/08 06:10:05;;;;;;;;;;;;;;;19.74;61.11;100901.95;2281250;77;50397;-76
2022/10/08 06:13:06;;;;;;;;;;;;;;;19.75;61.33;100898.75;2289568;77;52256;-76
2022/10/08 06:16:08;;;;;;;;;;;;;;;19.73;61.48;100897.62;2243874;78;50328;-77
2022/10/08 06:19:10;;;;;;;;;;;;;;;19.73;61.38;100902.98;2260080;77;51452;-77
2022/10/08 06:22:11;;;;;;;;;;;;;;;19.77;61.46;100902.09;2241848;79;50371;-78
2022/10/08 06:25:13;;;;;;;;;;;;;;;19.75;61.19;100904.95;2241792;79;50412;-78
2022/10/08 06:28:15;;;;;;;;;;;;;;;19.77;61.34;100908.81;2238698;79;50788;-78
2022/10/08 06:31:16;;;;;;;;;;;;;;;19.74;61.53;100914.55;2214162;79;51459;-79
2022/10/08 06:34:18;;;;;;;;;;;;;;;19.75;61.64;100918.37;2274297;78;50356;-78
2022/10/08 06:37:19;;;;;;;;;;;;;;;19.83;61.42;100921.48;2220447;78;50346;-78
2022/10/08 06:40:21;;;;;;;;;;;;;;;19.80;61.90;100926.71;2278234;77;50344;-77
2022/10/08 06:43:22;;;;;;;;;;;;;;;19.78;62.60;100926.09;2226018;79;50206;-77
2022/10/08 06:46:24;;;;;;;;;;;;;;;19.79;62.55;100926.41;2261461;77;51559;-77
2022/10/08 06:49:26;;;;;;;;;;;;;;;19.80;62.44;100927.23;2312957;77;50742;-77
2022/10/08 06:52:27;;;;;;;;;;;;;;;19.77;62.80;100928.43;2268630;78;50745;-78
2022/10/08 06:55:29;;;;;;;;;;;;;;;19.79;62.31;100942.52;2284796;76;51634;-78
2022/10/08 06:58:31;;;;;;;;;;;;;;;19.80;62.54;100935.28;2303285;77;51593;-78
2022/10/08 07:01:33;;;;;;;;;;;;;;;19.80;62.53;100939.31;2286282;77;51498;-79
2022/10/08 07:04:35;;;;;;;;;;;;;;;19.80;62.39;100938.80;2284365;78;50403;-80
2022/10/08 07:07:36;;;;;;;;;;;;;;;19.89;62.12;100941.42;2219260;79;51337;-78
2022/10/08 07:10:38;;;;;;;;;;;;;;;19.89;62.18;100941.42;2313045;77;50701;-78
2022/10/08 07:13:40;;;;;;;;;;;;;;;19.87;62.20;100932.20;2251204;78;50286;-78
2022/10/08 07:16:41;;;;;;;;;;;;;;;19.89;61.96;100933.36;2275131;78;50378;-80
2022/10/08 07:19:43;;;;;;;;;;;;;;;19.86;62.25;100941.28;2233751;78;49971;-79
2022/10/08 07:22:44;;;;;;;;;;;;;;;19.87;62.21;100940.77;2272988;78;51550;-79
2022/10/08 07:25:47;;;;;;;;;;;;;;;19.91;61.86;100946.07;2316676;76;50726;-79
2022/10/08 07:28:51;;;;;;;;;;;;;;;19.83;62.33;100951.02;2232120;78;51481;-79
2022/10/08 07:31:52;;;;;;;;;;;;;;;19.84;62.23;100962.11;2247691;78;50155;-79
2022/10/08 07:34:54;;;;;;;;;;;;;;;19.88;62.12;100955.33;2273102;77;50401;-79
2022/10/08 07:37:56;;;;;;;;;;;;;;;19.96;61.80;100957.09;2267762;77;50143;-79
2022/10/08 07:40:57;;;;;;;;;;;;;;;20.00;61.80;100954.38;2286321;78;50453;-79
2022/10/08 07:43:59;;;;;;;;;;;;;;;19.98;61.74;100953.20;2298600;76;50228;-80
2022/10/08 07:47:01;;;;;;;;;;;;;;;19.94;61.88;100960.50;2284038;77;51628;-80
2022/10/08 07:50:03;;;;;;;;;;;;;;;19.97;61.75;100964.98;2276877;78;51554;-78
2022/10/08 07:53:04;;;;;;;;;;;;;;;19.98;61.68;100959.92;2303605;76;50428;-78
2022/10/08 07:56:06;;;;;;;;;;;;;;;19.98;61.69;100965.81;2247920;77;50064;-77
2022/10/08 07:59:08;;;;;;;;;;;;;;;19.96;61.70;100974.55;2284067;78;50307;-79
2022/10/08 08:02:10;;;;;;;;;;;;;;;19.98;61.58;100966.64;2283950;78;51605;-78
2022/10/08 08:05:11;;;;;;;;;;;;;;;19.92;61.68;100966.05;2271367;77;50380;-78
2022/10/08 08:08:13;;;;;;;;;;;;;;;19.94;61.60;100969.39;2241843;78;51497;-78
2022/10/08 08:11:15;;;;;;;;;;;;;;;19.97;61.50;100974.90;2313290;77;51559;-79
2022/10/08 08:14:18;;;;;;;;;;;;;;;19.97;61.52;100973.55;2313241;77;50396;-79
2022/10/08 08:17:20;;;;;;;;;;;;;;;19.99;61.41;100971.53;2313592;77;50843;-79
2022/10/08 08:20:21;;;;;;;;;;;;;;;19.99;61.37;100975.04;2289359;77;50963;-78
2022/10/08 08:23:24;;;;;;;;;;;;;;;19.97;61.36;100970.88;2313123;77;50521;-79
2022/10/08 08:26:31;;;;;;;;;;;;;;;19.96;61.37;100982.13;2289303;77;51620;-78
2022/10/08 08:29:32;;;;;;;;;;;;;;;19.95;61.36;100987.67;2313709;77;22445;-78
2022/10/08 08:32:34;;;;;;;;;;;;;;;19.97;61.35;100974.90;2289340;77;52496;-79
2022/10/08 08:35:35;;;;;;;;;;;;;;;19.97;61.27;100980.27;2312168;77;51529;-79
2022/10/08 08:38:37;;;;;;;;;;;;;;;19.98;61.22;100981.92;2269154;77;50723;-80
2022/10/08 08:41:43;;;;;;;;;;;;;;;19.99;61.18;100983.61;2275305;78;50649;-78
2022/10/08 08:44:46;;;;;;;;;;;;;;;19.99;61.09;100983.61;2263468;77;49719;-79
2022/10/08 08:47:56;;;;;;;;;;;;;;;19.99;61.06;100986.30;2251334;77;50974;-79
2022/10/08 08:50:58;;;;;;;;;;;;;;;20.00;60.95;100983.92;2250442;78;50261;-79
2022/10/08 08:54:00;;;;;;;;;;;;;;;20.00;60.94;100985.27;2266652;77;51643;-79
2022/10/08 08:57:03;;;;;;;;;;;;;;;20.00;60.90;100982.06;2314924;77;51398;-79
2022/10/08 09:00:14;;;;;;;;;;;;;;;19.98;60.89;100981.41;2311960;77;51631;-79
2022/10/08 09:03:20;;;;;;;;;;;;;;;19.98;60.86;100981.41;2313259;77;50243;-77
2022/10/08 09:06:22;;;;;;;;;;;;;;;19.99;60.84;100986.30;2313100;77;50795;-77
2022/10/08 09:09:25;;;;;;;;;;;;;;;20.00;60.79;100986.61;2314937;76;51269;-79
2022/10/08 09:12:28;;;;;;;;;;;;;;;20.02;60.73;100991.30;2313411;77;50769;-79
2022/10/08 09:15:32;;;;;;;;;;;;;;;20.00;60.73;100994.16;2312853;77;50676;-78
2022/10/08 09:18:34;;;;;;;;;;;;;;;20.02;60.67;100999.36;2312586;77;51546;-79
2022/10/08 09:21:36;;;;;;;;;;;;;;;20.01;60.70;101001.70;2314471;76;49546;-79
2022/10/08 09:24:37;;;;;;;;;;;;;;;20.00;60.73;101005.41;2282642;77;50470;-79
2022/10/08 09:27:43;;;;;;;;;;;;;;;19.99;60.73;101001.07;2283085;77;50238;-79
2022/10/08 09:30:45;;;;;;;;;;;;;;;19.96;60.76;100996.91;2297863;77;50725;-79
2022/10/08 09:33:48;;;;;;;;;;;;;;;19.96;60.76;101005.44;2278394;77;51032;-79
2022/10/08 09:36:53;;;;;;;;;;;;;;;19.97;60.72;101009.81;2297262;77;51523;-79
2022/10/08 09:40:13;;;;;;;;;;;;;;;19.96;60.72;101011.67;2297818;77;50782;-79
2022/10/08 09:43:18;;;;;;;;;;;;;;;19.97;60.71;101015.19;2297771;77;51600;-78
2022/10/08 09:46:27;;;;;;;;;;;;;;;19.97;60.67;101007.13;2253357;77;50948;-79
2022/10/08 09:49:30;;;;;;;;;;;;;;;20.00;60.58;101005.41;2297632;77;50769;-79
2022/10/08 09:52:32;;;;;;;;;;;;;;;19.98;60.61;101012.30;2311187;76;51558;-79
2022/10/08 09:55:34;;;;;;;;;;;;;;;19.99;60.57;101021.22;2302543;76;50397;-79
2022/10/08 09:58:40;;;;;;;;;;;;;;;20.00;60.55;101022.88;2278531;77;49910;-79
2022/10/08 10:01:45;;;;;;;;;;;;;;;20.00;60.56;101021.53;2293078;77;51786;-79
2022/10/08 10:04:47;;;;;;;;;;;;;;;19.99;60.56;101026.08;2297815;76;51333;-79
2022/10/08 10:07:48;;;;;;;;;;;;;;;19.98;60.61;101028.93;2297939;77;50728;-79
2022/10/08 10:10:50;;;;;;;;;;;;;;;19.98;60.60;101036.98;2277687;77;50985;-79
2022/10/08 10:13:51;;;;;;;;;;;;;;;19.97;60.58;101028.62;2295836;77;50730;-79
2022/10/08 10:16:57;;;;;;;;;;;;;;;19.94;60.67;101024.96;2295743;77;52371;-79
2022/10/08 10:20:00;;;;;;;;;;;;;;;19.90;60.78;101025.81;2296181;77;51670;-80
2022/10/08 10:23:12;;;;;;;;;;;;;;;19.96;60.67;101027.79;2303330;76;50099;-79
2022/10/08 10:26:16;;;;;;;;;;;;;;;19.94;60.76;101028.98;2297542;77;51291;-79
2022/10/08 10:29:21;;;;;;;;;;;;;;;19.94;60.81;101043.77;2287655;77;50289;-79
2022/10/08 10:32:31;;;;;;;;;;;;;;;19.92;60.85;101037.73;2275176;78;51348;-79
2022/10/08 10:35:32;;;;;;;;;;;;;;;19.87;61.01;101042.30;2251428;78;49646;-79
2022/10/08 10:38:35;;;;;;;;;;;;;;;19.93;60.81;101044.24;2251479;78;49570;-81
2022/10/08 10:41:42;;;;;;;;;;;;;;;19.92;60.76;101048.47;2275439;78;51427;-79
2022/10/08 10:44:44;;;;;;;;;;;;;;;19.89;60.88;101042.12;2274899;78;22298;-80
2022/10/08 10:47:45;;;;;;;;;;;;;;;19.92;60.82;101049.30;2275343;78;50171;-80
2022/10/08 10:50:48;;;;;;;;;;;;;;;19.89;60.89;101045.64;2275308;78;50254;-77
2022/10/08 10:54:04;;;;;;;;;;;;;;;19.89;60.93;101043.47;2282686;77;50420;-76
2022/10/08 10:57:09;;;;;;;;;;;;;;;19.87;60.88;101047.67;2274637;78;50457;-77
2022/10/08 11:00:15;;;;;;;;;;;;;;;19.91;60.79;101046.78;2212427;79;50995;-76
2022/10/08 11:03:35;;;;;;;;;;;;;;;19.93;60.71;101050.13;2236207;79;51550;-76
2022/10/08 11:06:55;;;;;;;;;;;;;;;19.91;60.73;101044.96;2279604;78;51616;-77
2022/10/08 11:10:01;;;;;;;;;;;;;;;19.90;60.74;101047.30;2281789;78;50786;-76
2022/10/08 11:13:21;;;;;;;;;;;;;;;19.90;61.13;101039.76;2293924;76;52642;-76
2022/10/08 11:16:42;;;;;;;;;;;;;;;19.90;61.30;101046.47;2281643;77;50769;-76
2022/10/08 11:20:02;;;;;;;;;;;;;;;19.93;61.19;101047.45;2281602;76;50336;-76
2022/10/08 11:23:05;;;;;;;;;;;;;;;19.93;61.21;101051.47;2286443;77;50389;-77
2022/10/08 11:26:27;;;;;;;;;;;;;;;19.87;61.69;101046.33;2293991;76;51621;-76
2022/10/08 11:29:33;;;;;;;;;;;;;;;19.87;61.71;101044.16;2312842;76;51607;-76
2022/10/08 11:32:35;;;;;;;;;;;;;;;19.86;62.14;101046.50;2313365;76;50443;-77
2022/10/08 11:35:41;;;;;;;;;;;;;;;19.87;62.12;101054.38;2313079;77;50582;-77
2022/10/08 11:38:44;;;;;;;;;;;;;;;19.84;61.96;101048.04;2305883;77;50629;-77
2022/10/08 11:41:54;;;;;;;;;;;;;;;19.85;61.99;101061.78;2312506;77;50689;-76
2022/10/08 11:44:57;;;;;;;;;;;;;;;19.84;62.20;101060.13;2312971;77;51495;-77
2022/10/08 11:47:59;;;;;;;;;;;;;;;19.88;61.91;101070.81;2310137;77;51492;-77
2022/10/08 11:51:11;;;;;;;;;;;;;;;19.89;61.96;101071.67;2289036;77;49702;-77
2022/10/08 11:54:18;;;;;;;;;;;;;;;19.90;61.72;101076.02;2264644;78;51552;-77
2022/10/08 11:57:35;;;;;;;;;;;;;;;19.89;61.78;101078.39;2249921;78;50673;-77
2022/10/08 12:00:41;;;;;;;;;;;;;;;19.93;61.53;101072.96;2249609;78;22438;-77
2022/10/08 12:03:44;;;;;;;;;;;;;;;19.93;61.76;101066.24;2263234;77;51112;-76
2022/10/08 12:06:46;;;;;;;;;;;;;;;19.93;61.52;101067.08;2249910;77;50298;-77
2022/10/08 12:10:01;;;;;;;;;;;;;;;19.92;61.70;101072.64;2249656;78;50291;-76
2022/10/08 12:13:11;;;;;;;;;;;;;;;19.93;61.48;101061.70;2249861;78;50410;-76
2022/10/08 12:16:12;;;;;;;;;;;;;;;19.93;61.69;101056.84;2237553;78;51356;-76
2022/10/08 12:22:59;;;;;;;;;;;;;;;19.87;61.76;101056.24;2363864;74;21780;-79
2022/10/08 12:26:02;;;;;;;;;;;;;;;19.87;61.82;101056.24;2352155;75;50799;-79
2022/10/08 12:29:03;;;;;;;;;;;;;;;19.87;61.80;101061.61;2372762;74;52484;-79
2022/10/08 12:32:05;;;;;;;;;;;;;;;19.91;61.48;101061.08;2401219;74;50730;-79
2022/10/08 12:35:22;;;;;;;;;;;;;;;19.88;61.55;101057.90;2392885;74;50369;-78
2022/10/08 12:38:34;;;;;;;;;;;;;;;19.86;61.68;101072.87;2361822;75;51091;-79
2022/10/08 12:41:46;;;;;;;;;;;;;;;19.86;61.80;101069.32;2358804;75;51373;-78
2022/10/08 12:45:06;;;;;;;;;;;;;;;19.85;61.92;101071.70;2315480;76;50406;-79
2022/10/08 12:48:12;;;;;;;;;;;;;;;19.83;61.96;101064.32;2316926;75;50621;-78
2022/10/08 12:51:21;;;;;;;;;;;;;;;19.84;61.87;101060.64;2352896;75;50670;-78
2022/10/08 12:54:23;;;;;;;;;;;;;;;19.84;61.84;101062.81;2364470;73;50861;-78
2022/10/08 12:57:28;;;;;;;;;;;;;;;19.82;61.89;101058.13;2428259;73;50814;-78
2022/10/08 13:00:30;;;;;;;;;;;;;;;19.82;61.82;101062.15;2428972;72;22247;-80
2022/10/08 13:03:32;;;;;;;;;;;;;;;19.83;61.85;101059.78;2430275;73;50760;-78
2022/10/08 13:06:34;;;;;;;;;;;;;;;19.85;61.84;101065.81;2426110;73;52465;-79
2022/10/08 13:09:35;;;;;;;;;;;;;;;19.93;61.36;101067.59;2364276;73;51018;-79
2022/10/08 13:12:37;;;;;;;;;;;;;;;19.95;61.44;101069.59;2417393;73;50614;-78
2022/10/08 13:15:39;;;;;;;;;;;;;;;19.97;61.56;101071.08;2355813;74;53651;-78
2022/10/08 13:18:42;;;;;;;;;;;;;;;19.96;61.59;101082.84;2355872;74;50744;-79
2022/10/08 13:21:45;;;;;;;;;;;;;;;19.94;61.65;101082.19;2359381;73;51325;-77
2022/10/08 13:24:46;;;;;;;;;;;;;;;19.93;61.73;101091.76;2426093;73;50387;-80
2022/10/08 13:27:50;;;;;;;;;;;;;;;19.91;61.77;101077.67;2429281;73;50727;-80
2022/10/08 13:30:53;;;;;;;;;;;;;;;19.87;61.98;101087.95;2426872;73;50709;-79
2022/10/08 13:33:54;;;;;;;;;;;;;;;19.88;61.75;101080.20;2409322;73;49937;-79
2022/10/08 13:36:57;;;;;;;;;;;;;;;19.88;61.66;101084.75;2429175;73;51522;-79
2022/10/08 13:39:59;;;;;;;;;;;;;;;19.89;61.64;101082.41;2428875;73;50270;-78
2022/10/08 13:43:01;;;;;;;;;;;;;;;19.85;61.71;101077.89;2391872;73;51568;-79
2022/10/08 13:46:02;;;;;;;;;;;;;;;19.90;61.58;101080.87;2439558;72;50078;-79
2022/10/08 13:49:05;;;;;;;;;;;;;;;19.89;61.54;101072.50;2429374;73;51238;-79
2022/10/08 13:52:09;;;;;;;;;;;;;;;19.90;61.49;101079.53;2426699;73;51499;-79
2022/10/08 13:55:12;;;;;;;;;;;;;;;19.91;61.46;101080.36;2426511;73;51672;-79
2022/10/08 13:58:14;;;;;;;;;;;;;;;19.98;61.23;101073.25;2408852;73;50999;-79
2022/10/08 14:01:15;;;;;;;;;;;;;;;20.03;61.09;101078.91;2429161;73;50391;-79
2022/10/08 14:04:17;;;;;;;;;;;;;;;20.03;61.09;101078.91;2429181;73;50769;-79
2022/10/08 14:07:26;;;;;;;;;;;;;;;20.05;61.03;101070.69;2392153;73;50157;-79
2022/10/08 14:10:28;;;;;;;;;;;;;;;20.05;61.03;101074.20;2439602;72;49541;-79
2022/10/08 14:13:29;;;;;;;;;;;;;;;20.06;61.05;101077.71;2429098;73;50384;-79
2022/10/08 14:16:31;;;;;;;;;;;;;;;20.07;60.94;101080.74;2429180;73;50934;-79
2022/10/08 14:19:32;;;;;;;;;;;;;;;20.09;60.86;101074.66;2429425;73;49927;-79
2022/10/08 14:22:43;;;;;;;;;;;;;;;20.08;60.92;101071.14;2360206;73;50075;-79
2022/10/08 14:25:37;;;;;;;;;;;;;;;20.09;60.93;101070.63;2425911;73;22236;-79
2022/10/08 14:28:39;;;;;;;;;;;;;;;20.08;60.98;101083.23;2398060;73;51401;-80
2022/10/08 14:31:40;;;;;;;;;;;;;;;20.07;60.92;101088.29;2429619;73;51012;-79
2022/10/08 14:34:42;;;;;;;;;;;;;;;20.07;60.94;101092.31;2370065;73;50953;-79
2022/10/08 14:37:44;;;;;;;;;;;;;;;20.04;61.04;101092.69;2429288;73;50613;-82
2022/10/08 14:40:45;;;;;;;;;;;;;;;20.03;61.11;101082.11;2429278;73;51452;-80
2022/10/08 14:43:47;;;;;;;;;;;;;;;20.01;61.12;101087.66;2428806;73;51484;-79
2022/10/08 14:46:53;;;;;;;;;;;;;;;19.98;61.19;101103.62;2425812;73;49513;-79
2022/10/08 14:49:52;;;;;;;;;;;;;;;19.98;61.21;101129.66;2429181;72;22404;-78
2022/10/08 14:52:54;;;;;;;;;;;;;;;19.94;61.27;101139.94;2429023;73;50509;-79
2022/10/08 14:55:56;;;;;;;;;;;;;;;19.93;61.30;101124.81;2428844;72;50693;-79
2022/10/08 14:58:57;;;;;;;;;;;;;;;19.96;61.14;101119.11;2439607;72;49417;-80
2022/10/08 15:01:59;;;;;;;;;;;;;;;19.96;61.11;101116.42;2391944;73;50352;-79
2022/10/08 15:05:01;;;;;;;;;;;;;;;19.93;61.16;101122.13;2429120;73;50288;-79
2022/10/08 15:08:02;;;;;;;;;;;;;;;19.91;61.19;101128.70;2429270;73;50391;-78
2022/10/08 15:11:04;;;;;;;;;;;;;;;19.88;61.22;101127.20;2410589;73;49633;-79
2022/10/08 15:14:05;;;;;;;;;;;;;;;19.88;61.23;101123.69;2429234;73;50872;-79
2022/10/08 15:17:07;;;;;;;;;;;;;;;19.84;61.26;101121.06;2429231;73;51621;-78
2022/10/08 15:20:09;;;;;;;;;;;;;;;19.87;61.22;101128.75;2391895;73;51400;-79
2022/10/08 15:23:10;;;;;;;;;;;;;;;19.84;61.23;101139.34;2364620;73;49724;-80
2022/10/08 15:26:16;;;;;;;;;;;;;;;19.82;61.29;101140.53;2429367;73;51775;-79
2022/10/08 15:29:17;;;;;;;;;;;;;;;19.79;61.30;101151.95;2428969;73;51950;-79
2022/10/08 15:32:19;;;;;;;;;;;;;;;19.79;61.26;101155.98;2396251;73;51313;-79
2022/10/08 15:35:20;;;;;;;;;;;;;;;19.79;61.26;101160.52;2368619;73;52522;-79
2022/10/08 15:38:22;;;;;;;;;;;;;;;19.79;61.23;101165.38;2429348;73;51470;-79
2022/10/08 15:41:24;;;;;;;;;;;;;;;19.80;61.16;101172.41;2395734;73;50662;-79
2022/10/08 15:44:26;;;;;;;;;;;;;;;19.82;61.11;101176.28;2429437;73;50651;-79